Cherry Grove, New York
Current Conditions -  °F | °C
As of 8:56 AM on Friday 31 Oct 2014 (Local Time) from KISP Reporting Station
Broken Clouds Broken Clouds  
Wind Chill: 44°   Ceiling: 26000
Heat Index: 48°   Visibility: 10mi
Dew Point: 39°   Wind: 8mph
Humidity: 71%   Direction: 30°NNE
Pressure: 29.99"   Gusts: NA
Location:  40.7472°N, 73.0832°W
Report Text: KISP 311256Z 03007KT 10SM SCT050 BKN260 09/04 A2999 RMK AO2 SLP156 T00890039
Loading
Personal Weather Stations






























Interactive Weather Map
Tropical Storm Tracking
New forecast layout! Learn more

10-Day Weather Forecast

Advertisements
Track Severe Weather on mobile